createdAt,value
2022-10-29T00:05:28.656Z,1011.823
2022-10-29T00:10:41.239Z,1011.818
2022-10-29T00:15:53.545Z,1011.875
2022-10-29T00:21:05.865Z,1011.823
2022-10-29T00:26:18.212Z,1011.957
2022-10-29T00:31:30.578Z,1012.057
2022-10-29T00:36:42.984Z,1012.085
2022-10-29T00:41:55.261Z,1012.323
2022-10-29T00:47:07.832Z,1012.294
2022-10-29T00:52:20.184Z,1012.154
2022-10-29T00:57:32.780Z,1012.239
2022-10-29T01:02:45.594Z,1012.03
2022-10-29T01:07:57.848Z,1012.035
2022-10-29T01:13:10.114Z,1012.134
2022-10-29T01:18:22.377Z,1012.136
2022-10-29T01:23:34.739Z,1012.091
2022-10-29T01:28:47.162Z,1012.162
2022-10-29T01:33:59.539Z,1012.12
2022-10-29T01:39:11.849Z,1012.132
2022-10-29T01:44:24.087Z,1012.204
2022-10-29T01:49:36.373Z,1012.297
2022-10-29T01:54:48.680Z,1012.257
2022-10-29T02:00:00.849Z,1012.322
2022-10-29T02:05:13.177Z,1012.309
2022-10-29T02:10:25.490Z,1012.332
2022-10-29T02:15:37.633Z,1012.367
2022-10-29T02:20:49.852Z,1012.45
2022-10-29T02:26:02.082Z,1012.567
2022-10-29T02:31:14.516Z,1012.725
2022-10-29T02:36:26.613Z,1012.764
2022-10-29T02:41:38.938Z,1012.726
2022-10-29T02:46:51.337Z,1012.789
2022-10-29T02:52:06.392Z,1012.797
2022-10-29T02:57:18.820Z,1012.827
2022-10-29T03:02:31.506Z,1012.695
2022-10-29T03:07:44.021Z,1012.693
2022-10-29T03:12:56.537Z,1012.756
2022-10-29T03:18:08.989Z,1012.696
2022-10-29T03:23:21.809Z,1012.683
2022-10-29T03:28:34.433Z,1012.624
2022-10-29T03:33:46.478Z,1012.678
2022-10-29T03:39:07.598Z,1012.753
2022-10-29T03:44:19.764Z,1012.782
2022-10-29T03:49:32.178Z,1012.813
2022-10-29T03:54:44.679Z,1012.805
2022-10-29T04:05:09.560Z,1012.902
2022-10-29T04:10:21.839Z,1012.92
2022-10-29T04:15:34.160Z,1012.929
2022-10-29T04:21:58.962Z,1012.991
2022-10-29T04:27:08.189Z,1012.95
2022-10-29T04:31:11.007Z,1012.892
2022-10-29T04:36:23.372Z,1012.805
2022-10-29T04:41:35.666Z,1012.772
2022-10-29T04:46:47.977Z,1012.659
2022-10-29T04:52:00.656Z,1012.634
2022-10-29T04:57:12.952Z,1012.92
2022-10-29T05:02:25.294Z,1012.964
2022-10-29T05:07:37.622Z,1012.99
2022-10-29T05:12:49.936Z,1012.98
2022-10-29T05:18:02.200Z,1013.08
2022-10-29T05:23:14.614Z,1013.066
2022-10-29T05:28:26.978Z,1013.094
2022-10-29T05:33:39.484Z,1013.145
2022-10-29T05:38:51.876Z,1013.095
2022-10-29T05:44:04.262Z,1013.041
2022-10-29T05:49:16.607Z,1012.943
2022-10-29T05:54:29.142Z,1012.877
2022-10-29T05:59:41.545Z,1012.929
2022-10-29T06:04:53.918Z,1013.016
2022-10-29T06:10:11.871Z,1013.148
2022-10-29T06:15:24.437Z,1013.099
2022-10-29T06:20:36.939Z,1013.08
2022-10-29T06:25:49.034Z,1013.14
2022-10-29T06:36:13.978Z,1013.326
2022-10-29T06:41:27.004Z,1013.317
2022-10-29T06:46:39.374Z,1013.38
2022-10-29T06:51:52.276Z,1013.365
2022-10-29T06:57:04.702Z,1013.392
2022-10-29T07:02:16.998Z,1013.437
2022-10-29T07:07:29.581Z,1013.415
2022-10-29T07:12:41.573Z,1013.415
2022-10-29T07:17:54.265Z,1013.413
2022-10-29T07:23:06.285Z,1013.534
2022-10-29T07:28:18.641Z,1013.587
2022-10-29T07:33:30.787Z,1013.64
2022-10-29T07:38:42.199Z,1013.745
2022-10-29T07:43:54.381Z,1013.757
2022-10-29T07:49:06.819Z,1013.678
2022-10-29T07:54:19.106Z,1013.786
2022-10-29T07:59:31.521Z,1013.776
2022-10-29T08:04:43.958Z,1013.708
2022-10-29T08:15:08.556Z,1013.778
2022-10-29T08:20:20.948Z,1013.786
2022-10-29T08:25:33.159Z,1013.836
2022-10-29T08:30:45.620Z,1013.817
2022-10-29T08:35:58.002Z,1013.771
2022-10-29T08:41:16.279Z,1013.812
2022-10-29T08:46:28.733Z,1013.875
2022-10-29T08:51:41.017Z,1013.879
2022-10-29T08:56:53.609Z,1013.917
2022-10-29T09:02:09.471Z,1013.92
2022-10-29T09:07:21.760Z,1013.951
2022-10-29T09:12:39.440Z,1013.875
2022-10-29T09:17:52.096Z,1013.954
2022-10-29T09:23:04.381Z,1014.066
2022-10-29T09:28:16.914Z,1014.119
2022-10-29T09:33:29.566Z,1014.175
2022-10-29T09:38:41.865Z,1014.05
2022-10-29T09:43:54.294Z,1013.992
2022-10-29T09:54:18.837Z,1013.967
2022-10-29T09:59:31.104Z,1013.852
2022-10-29T10:04:43.629Z,1013.794
2022-10-29T10:09:56.030Z,1013.829
2022-10-29T10:15:08.542Z,1013.723
2022-10-29T10:20:20.764Z,1013.687
2022-10-29T10:25:33.245Z,1013.646
2022-10-29T10:30:45.621Z,1013.518
2022-10-29T10:35:58.113Z,1013.517
2022-10-29T10:41:10.405Z,1013.435
2022-10-29T10:46:22.880Z,1013.51
2022-10-29T10:51:35.545Z,1013.617
2022-10-29T10:56:47.739Z,1013.683
2022-10-29T11:02:00.125Z,1013.647
2022-10-29T11:07:12.505Z,1013.52
2022-10-29T11:12:24.804Z,1013.494
2022-10-29T11:17:37.211Z,1013.448
2022-10-29T11:22:49.810Z,1013.349
2022-10-29T11:28:01.955Z,1013.338
2022-10-29T11:38:26.542Z,1012.959
2022-10-29T11:43:38.811Z,1013.172
2022-10-29T11:54:03.742Z,1013.031
2022-10-29T11:59:15.971Z,1012.951
2022-10-29T12:04:28.555Z,1012.892
2022-10-29T12:09:40.835Z,1012.853
2022-10-29T12:14:53.218Z,1012.68
2022-10-29T12:25:18.007Z,1012.738
2022-10-29T12:35:42.604Z,1012.698
2022-10-29T12:40:54.975Z,1012.697
2022-10-29T12:46:19.359Z,1012.616
2022-10-29T12:51:22.575Z,1012.468
2022-10-29T12:56:34.999Z,1012.354
2022-10-29T13:02:10.289Z,1012.288
2022-10-29T13:06:59.616Z,1012.196
2022-10-29T13:12:12.143Z,1012.273
2022-10-29T13:17:24.456Z,1012.172
2022-10-29T13:27:49.019Z,1012.155
2022-10-29T13:33:01.309Z,1012.109
2022-10-29T13:38:13.330Z,1012.067
2022-10-29T13:48:37.904Z,1012.011
2022-10-29T13:53:50.214Z,1011.984
2022-10-29T13:59:02.518Z,1011.843
2022-10-29T14:04:15.582Z,1012.003
2022-10-29T14:09:28.808Z,1012.02
2022-10-29T14:14:41.051Z,1011.941
2022-10-29T14:19:53.168Z,1011.895
2022-10-29T14:25:05.376Z,1011.992
2022-10-29T14:30:17.683Z,1011.923
2022-10-29T14:35:30.041Z,1011.947
2022-10-29T14:40:42.250Z,1011.883
2022-10-29T14:45:54.820Z,1012.001
2022-10-29T14:51:07.288Z,1011.986
2022-10-29T14:56:19.638Z,1012.02
2022-10-29T15:01:32.027Z,1011.949
2022-10-29T15:06:44.497Z,1011.933
2022-10-29T15:11:56.695Z,1011.913
2022-10-29T15:17:08.817Z,1011.897
2022-10-29T15:22:21.156Z,1011.797
2022-10-29T15:27:33.554Z,1011.776
2022-10-29T15:32:45.893Z,1011.763
2022-10-29T15:37:58.201Z,1011.766
2022-10-29T15:43:10.653Z,1011.723
2022-10-29T15:48:23.158Z,1011.78
2022-10-29T15:53:35.395Z,1011.876
2022-10-29T15:58:47.707Z,1011.936
2022-10-29T16:04:00.143Z,1011.933
2022-10-29T16:09:12.260Z,1011.961
2022-10-29T16:14:24.678Z,1011.924
2022-10-29T16:19:37.011Z,1011.883
2022-10-29T16:24:49.268Z,1011.808
2022-10-29T16:30:01.676Z,1011.823
2022-10-29T16:35:13.796Z,1011.859
2022-10-29T16:40:26.284Z,1011.779
2022-10-29T16:45:38.845Z,1011.679
2022-10-29T16:50:51.234Z,1011.726
2022-10-29T16:56:03.440Z,1011.733
2022-10-29T17:06:30.930Z,1011.644
2022-10-29T17:16:55.970Z,1011.793
2022-10-29T17:22:08.455Z,1011.825
2022-10-29T17:27:20.620Z,1011.734
2022-10-29T17:32:33.143Z,1011.775
2022-10-29T17:37:45.331Z,1011.764
2022-10-29T17:43:00.496Z,1011.813
2022-10-29T17:48:12.364Z,1011.787
2022-10-29T17:53:24.846Z,1011.769
2022-10-29T17:58:36.973Z,1011.766
2022-10-29T18:03:49.227Z,1011.783
2022-10-29T18:09:01.333Z,1011.736
2022-10-29T18:14:13.740Z,1011.711
2022-10-29T18:19:26.187Z,1011.572
2022-10-29T18:24:38.578Z,1011.656
2022-10-29T18:29:50.915Z,1011.706
2022-10-29T18:35:03.148Z,1011.714
2022-10-29T18:40:15.480Z,1011.68
2022-10-29T18:45:27.791Z,1011.765
2022-10-29T18:50:39.888Z,1011.666
2022-10-29T18:55:53.368Z,1011.57
2022-10-29T19:01:06.027Z,1011.653
2022-10-29T19:06:18.327Z,1011.605
2022-10-29T19:11:30.485Z,1011.499
2022-10-29T19:16:42.963Z,1011.444
2022-10-29T19:21:55.261Z,1011.462
2022-10-29T19:27:07.499Z,1011.401
2022-10-29T19:32:19.708Z,1011.357
2022-10-29T19:37:32.118Z,1011.414
2022-10-29T19:42:44.640Z,1011.243
2022-10-29T19:47:57.091Z,1011.203
2022-10-29T19:53:09.130Z,1011.275
2022-10-29T19:58:21.413Z,1011.283
2022-10-29T20:03:33.743Z,1011.3
2022-10-29T20:08:46.098Z,1011.4
2022-10-29T20:13:58.495Z,1011.362
2022-10-29T20:19:11.055Z,1011.39
2022-10-29T20:24:23.409Z,1011.405
2022-10-29T20:29:35.732Z,1011.544
2022-10-29T20:34:48.192Z,1011.415
2022-10-29T20:40:00.546Z,1011.316
2022-10-29T20:45:12.863Z,1011.479
2022-10-29T20:50:25.385Z,1011.557
2022-10-29T20:55:37.648Z,1011.517
2022-10-29T21:00:52.541Z,1011.529
2022-10-29T21:06:04.869Z,1011.469
2022-10-29T21:11:17.362Z,1011.375
2022-10-29T21:16:29.697Z,1011.423
2022-10-29T21:21:42.919Z,1011.485
2022-10-29T21:26:55.461Z,1011.492
2022-10-29T21:32:10.239Z,1011.43
2022-10-29T21:37:20.095Z,1011.471
2022-10-29T21:42:32.401Z,1011.454
2022-10-29T21:47:44.962Z,1011.513
2022-10-29T21:52:57.556Z,1011.314
2022-10-29T21:58:09.505Z,1011.327
2022-10-29T22:03:21.713Z,1011.252
2022-10-29T22:08:33.938Z,1011.22
2022-10-29T22:13:46.477Z,1011.25
2022-10-29T22:18:58.653Z,1011.139
2022-10-29T22:24:10.839Z,1010.992
2022-10-29T22:29:23.134Z,1010.906
2022-10-29T22:34:35.401Z,1010.983
2022-10-29T22:39:47.754Z,1011.196
2022-10-29T22:45:00.222Z,1011.185
2022-10-29T22:50:12.479Z,1011.18
2022-10-29T22:55:24.864Z,1011.141
2022-10-29T23:00:37.266Z,1011.167
2022-10-29T23:05:49.674Z,1011.243
2022-10-29T23:11:01.982Z,1011.306
2022-10-29T23:16:14.307Z,1011.222
2022-10-29T23:21:26.628Z,1011.143
2022-10-29T23:26:39.009Z,1011.08
2022-10-29T23:31:51.335Z,1011.127
2022-10-29T23:37:04.474Z,1011.131
2022-10-29T23:42:16.044Z,1011.093
2022-10-29T23:47:28.505Z,1011.071
2022-10-29T23:52:40.580Z,1011.028
2022-10-29T23:57:54.580Z,1011.009
